Time;durP1;ratioP1;P1;durP2;ratioP2;P2;SDS_P1;SDS_P2;PMS_P1;PMS_P2;Temp;Humidity;BMP_temperature;BMP_pressure;BME280_temperature;BME280_humidity;BME280_pressure;Samples;Min_cycle;Max_cycle;Signal;HPM_P1;HPM_P2
2021/12/12 00:00:42;;;;;;;8.38;2.65;;;10.30;99.90;;;;;;5057945;28;20045;-65
2021/12/12 00:03:20;;;;;;;6.03;2.80;;;10.30;99.90;;;;;;5064552;28;20041;-66
2021/12/12 00:05:52;;;;;;;6.38;2.47;;;10.40;99.90;;;;;;5047779;28;20481;-67
2021/12/12 00:08:22;;;;;;;6.07;2.55;;;10.40;99.90;;;;;;5056694;28;20413;-66
2021/12/12 00:10:52;;;;;;;;;;;10.50;99.90;;;;;;5050542;28;20048;-66
2021/12/12 00:13:23;;;;;;;;;;;10.40;99.90;;;;;;5067912;28;19928;-66
2021/12/12 00:15:51;;;;;;;3.85;1.70;;;10.50;99.90;;;;;;5067532;28;19921;-65
2021/12/12 00:18:19;;;;;;;4.88;1.98;;;10.50;99.90;;;;;;5067979;28;20041;-65
2021/12/12 00:20:47;;;;;;;4.20;1.77;;;10.50;99.90;;;;;;5067383;28;20072;-65
2021/12/12 00:23:15;;;;;;;3.42;1.67;;;10.50;99.90;;;;;;5063937;28;20048;-65
2021/12/12 00:25:48;;;;;;;2.67;1.60;;;10.50;99.90;;;;;;5068101;28;20067;-66
2021/12/12 00:28:19;;;;;;;5.55;2.03;;;10.60;99.90;;;;;;5054780;28;20036;-66
2021/12/12 00:30:50;;;;;;;6.13;1.50;;;10.60;99.90;;;;;;5068679;28;20048;-66
2021/12/12 00:33:19;;;;;;;3.17;1.58;;;10.60;99.90;;;;;;5067079;28;20052;-65
2021/12/12 00:35:49;;;;;;;2.70;1.02;;;10.60;99.90;;;;;;5066746;28;20044;-66
2021/12/12 00:38:28;;;;;;;3.15;0.80;;;10.60;99.90;;;;;;5066729;28;20048;-66
2021/12/12 00:40:59;;;;;;;3.50;1.23;;;10.60;99.90;;;;;;5068352;28;20294;-68
2021/12/12 00:43:32;;;;;;;3.88;0.90;;;10.70;99.90;;;;;;5068596;28;20049;-68
2021/12/12 00:46:04;;;;;;;2.10;0.73;;;10.70;99.90;;;;;;5068528;28;20052;-68
2021/12/12 00:48:34;;;;;;;3.22;0.70;;;10.70;99.90;;;;;;5068519;28;20404;-68
2021/12/12 00:51:06;;;;;;;1.23;0.50;;;10.70;99.90;;;;;;5068694;28;20317;-70
2021/12/12 00:53:34;;;;;;;3.42;0.70;;;10.70;99.90;;;;;;5064740;28;20059;-68
2021/12/12 00:56:03;;;;;;;1.33;0.28;;;10.70;99.90;;;;;;5067818;28;20053;-68
2021/12/12 00:58:31;;;;;;;0.45;0.30;;;10.80;99.90;;;;;;5067708;28;20057;-68
2021/12/12 01:01:05;;;;;;;0.32;0.28;;;10.80;99.90;;;;;;5067330;28;20048;-69
2021/12/12 01:03:42;;;;;;;0.43;0.30;;;10.90;99.90;;;;;;5047131;28;20044;-67
2021/12/12 01:06:12;;;;;;;1.25;0.10;;;10.90;99.90;;;;;;5064955;28;20032;-69
2021/12/12 01:08:42;;;;;;;0.57;0.23;;;10.90;99.90;;;;;;5057630;28;20053;-66
2021/12/12 01:11:15;;;;;;;0.43;0.20;;;10.90;99.90;;;;;;5052068;28;20052;-69
2021/12/12 01:13:44;;;;;;;0.10;0.10;;;11.00;99.90;;;;;;5068017;28;20052;-69
2021/12/12 01:16:23;;;;;;;0.93;0.20;;;11.00;99.90;;;;;;5067197;28;20045;-69
2021/12/12 01:19:10;;;;;;;0.13;0.13;;;11.10;99.90;;;;;;5066616;28;20504;-69
2021/12/12 01:21:43;;;;;;;0.25;0.20;;;11.10;99.90;;;;;;5068226;28;20048;-68
2021/12/12 01:24:24;;;;;;;1.52;0.40;;;11.10;99.90;;;;;;5066146;28;20063;-66
2021/12/12 01:26:55;;;;;;;0.10;0.10;;;11.20;99.90;;;;;;5067861;28;20519;-66
2021/12/12 01:29:22;;;;;;;0.10;0.10;;;11.20;99.90;;;;;;5066904;28;20056;-65
2021/12/12 01:31:51;;;;;;;0.10;0.10;;;11.20;99.90;;;;;;5067997;28;20044;-65
2021/12/12 01:34:25;;;;;;;0.25;0.10;;;11.20;99.90;;;;;;5066199;28;20115;-65
2021/12/12 01:39:35;;;;;;;0.88;0.10;;;11.30;99.90;;;;;;5051573;28;20045;-69
2021/12/12 01:42:21;;;;;;;0.20;0.10;;;11.30;99.90;;;;;;5047942;28;20071;-68
2021/12/12 01:45:02;;;;;;;0.20;0.10;;;11.30;99.90;;;;;;5064554;28;20048;-65
2021/12/12 01:47:53;;;;;;;0.10;0.10;;;11.40;99.90;;;;;;5067597;28;20055;-71
2021/12/12 01:50:36;;;;;;;0.20;0.10;;;11.30;99.90;;;;;;5068297;28;20044;-71
2021/12/12 01:53:07;;;;;;;0.10;0.10;;;11.40;99.90;;;;;;5065166;28;20044;-69
2021/12/12 01:55:40;;;;;;;0.10;0.08;;;11.40;99.90;;;;;;5066872;28;20041;-71
2021/12/12 01:58:16;;;;;;;0.10;0.08;;;11.40;99.90;;;;;;5065806;28;20052;-67
2021/12/12 02:00:53;;;;;;;0.10;0.10;;;11.40;99.90;;;;;;5067473;28;20036;-69
2021/12/12 02:03:25;;;;;;;0.10;0.10;;;11.40;99.90;;;;;;5067112;28;20503;-69
2021/12/12 02:05:55;;;;;;;0.88;0.05;;;11.50;99.90;;;;;;5056531;28;20048;-66
2021/12/12 02:08:24;;;;;;;0.13;0.10;;;11.50;99.90;;;;;;5065505;28;20036;-67
2021/12/12 02:10:56;;;;;;;0.17;0.08;;;11.50;99.90;;;;;;5067972;28;20645;-66
2021/12/12 02:13:27;;;;;;;0.10;0.10;;;11.50;99.90;;;;;;5067237;28;20404;-67
2021/12/12 02:15:59;;;;;;;0.20;0.20;;;11.40;99.90;;;;;;5067764;28;20059;-67
2021/12/12 02:18:33;;;;;;;0.10;0.00;;;11.40;99.90;;;;;;5067433;28;20439;-66
2021/12/12 02:21:23;;;;;;;0.10;0.00;;;11.40;99.90;;;;;;5067216;28;20049;-66
2021/12/12 02:24:32;;;;;;;0.10;0.10;;;11.50;99.90;;;;;;5065378;28;20438;-66
2021/12/12 02:35:36;;;;;;;0.10;0.10;;;11.50;99.90;;;;;;5058541;28;20044;-67
2021/12/12 02:38:05;;;;;;;0.20;0.10;;;11.50;99.90;;;;;;5069666;28;20507;-68
2021/12/12 02:40:41;;;;;;;0.20;0.20;;;11.50;99.90;;;;;;5069612;28;20485;-66
2021/12/12 02:43:12;;;;;;;2.25;0.30;;;11.50;99.90;;;;;;5068483;28;20411;-67
2021/12/12 02:45:40;;;;;;;0.00;0.00;;;11.50;99.90;;;;;;5067568;28;20048;-66
2021/12/12 02:48:09;;;;;;;1.27;0.10;;;11.50;99.90;;;;;;5070927;28;20049;-67
2021/12/12 02:50:40;;;;;;;0.20;0.10;;;11.50;99.90;;;;;;5072726;28;20252;-66
2021/12/12 02:53:16;;;;;;;0.10;0.10;;;11.50;99.90;;;;;;5074215;28;20041;-66
2021/12/12 02:55:49;;;;;;;0.22;0.20;;;11.50;99.90;;;;;;5074168;28;20045;-66
2021/12/12 02:58:20;;;;;;;1.15;0.20;;;11.50;99.90;;;;;;5072379;28;20053;-66
2021/12/12 03:01:15;;;;;;;0.10;0.10;;;11.40;99.90;;;;;;5074344;28;20044;-66
2021/12/12 03:03:45;;;;;;;0.00;0.00;;;11.40;99.90;;;;;;5069189;28;20408;-66
2021/12/12 03:06:20;;;;;;;0.10;0.10;;;11.40;99.90;;;;;;5073966;28;20045;-66
2021/12/12 03:08:51;;;;;;;0.10;0.10;;;11.40;99.90;;;;;;5073940;28;20064;-66
2021/12/12 03:11:19;;;;;;;0.10;0.10;;;11.40;99.90;;;;;;5074184;28;20049;-65
2021/12/12 03:13:47;;;;;;;0.20;0.20;;;11.40;99.90;;;;;;5072760;28;20057;-65
2021/12/12 03:16:15;;;;;;;0.00;0.00;;;11.40;99.90;;;;;;5073868;28;20043;-66
2021/12/12 03:18:44;;;;;;;0.10;0.10;;;11.40;99.90;;;;;;5073734;28;20648;-66
2021/12/12 03:21:30;;;;;;;0.90;0.00;;;11.40;99.90;;;;;;5073945;28;20055;-66
2021/12/12 03:24:09;;;;;;;0.05;0.05;;;11.40;99.90;;;;;;5074006;28;20056;-66
2021/12/12 03:26:37;;;;;;;0.10;0.10;;;11.40;99.90;;;;;;5073691;28;20037;-66
2021/12/12 03:29:06;;;;;;;0.10;0.10;;;11.50;99.90;;;;;;5073343;28;20048;-66
2021/12/12 03:31:38;;;;;;;0.10;0.10;;;11.40;99.90;;;;;;5073410;28;20048;-66
2021/12/12 03:34:09;;;;;;;2.08;0.10;;;11.50;99.90;;;;;;5072604;28;20048;-66
2021/12/12 03:36:37;;;;;;;1.35;0.17;;;11.50;99.90;;;;;;5072035;28;20041;-66
2021/12/12 03:39:13;;;;;;;0.05;0.05;;;11.50;99.90;;;;;;5073618;28;20048;-66
2021/12/12 03:41:41;;;;;;;0.00;0.00;;;11.50;99.90;;;;;;5072444;28;20040;-66
2021/12/12 03:44:16;;;;;;;0.10;0.03;;;11.50;99.90;;;;;;5073439;28;20052;-68
2021/12/12 03:46:46;;;;;;;1.35;0.10;;;11.50;99.90;;;;;;5072197;28;20045;-67
2021/12/12 03:49:15;;;;;;;0.05;0.00;;;11.50;99.90;;;;;;5072390;28;20047;-68
2021/12/12 03:51:49;;;;;;;0.10;0.00;;;11.50;99.90;;;;;;5073009;28;20045;-68
2021/12/12 03:54:18;;;;;;;0.00;0.00;;;11.50;99.90;;;;;;5072051;28;20041;-68
2021/12/12 03:56:47;;;;;;;0.28;0.08;;;11.50;99.90;;;;;;5073048;28;20040;-68
2021/12/12 03:59:15;;;;;;;1.65;0.00;;;11.50;99.90;;;;;;5071804;28;20057;-68
2021/12/12 04:01:50;;;;;;;0.30;0.03;;;11.50;99.90;;;;;;5058196;28;20044;-67
2021/12/12 04:04:32;;;;;;;1.13;0.00;;;11.50;99.90;;;;;;5072827;28;20040;-66
2021/12/12 04:07:02;;;;;;;0.00;0.00;;;11.50;99.90;;;;;;5071613;28;20064;-67
2021/12/12 04:09:30;;;;;;;0.00;0.00;;;11.50;99.90;;;;;;5071988;28;20060;-66
2021/12/12 04:12:02;;;;;;;0.85;0.03;;;11.50;99.90;;;;;;5071527;28;20494;-66
2021/12/12 04:14:30;;;;;;;1.85;0.10;;;11.60;99.90;;;;;;5055223;28;20503;-67
2021/12/12 04:17:01;;;;;;;0.47;0.22;;;11.60;99.90;;;;;;5072599;28;20056;-67
2021/12/12 04:19:29;;;;;;;0.00;0.00;;;11.60;99.90;;;;;;5072301;28;20519;-66
2021/12/12 04:21:57;;;;;;;0.20;0.08;;;11.60;99.90;;;;;;5071593;28;20060;-66
2021/12/12 04:24:28;;;;;;;0.10;0.00;;;11.60;99.90;;;;;;5072755;28;20060;-67
2021/12/12 04:26:58;;;;;;;0.93;0.00;;;11.60;99.90;;;;;;5072391;28;20051;-66
2021/12/12 04:29:35;;;;;;;0.00;0.00;;;11.50;99.90;;;;;;5072543;28;20051;-67
2021/12/12 04:32:27;;;;;;;0.10;0.10;;;11.50;99.90;;;;;;5070902;28;20044;-67
2021/12/12 04:35:01;;;;;;;0.10;0.10;;;11.60;99.90;;;;;;5071236;28;20055;-69
2021/12/12 04:37:30;;;;;;;0.15;0.00;;;11.60;99.90;;;;;;5072068;28;20036;-67
2021/12/12 04:39:58;;;;;;;0.00;0.00;;;11.60;99.90;;;;;;5072327;28;20487;-68
2021/12/12 04:42:33;;;;;;;0.20;0.00;;;11.50;99.90;;;;;;5072555;28;20045;-68
2021/12/12 04:45:57;;;;;;;0.10;0.10;;;11.60;99.90;;;;;;5072239;28;20051;-67
2021/12/12 04:51:29;;;;;;;0.35;0.00;;;11.60;99.90;;;;;;5072417;28;20505;-68
2021/12/12 04:54:18;;;;;;;0.10;0.10;;;11.60;99.90;;;;;;5071775;28;20040;-68
2021/12/12 04:56:55;;;;;;;0.45;0.05;;;11.60;99.90;;;;;;5071665;28;20404;-68
2021/12/12 04:59:34;;;;;;;0.00;0.00;;;11.60;99.90;;;;;;5071932;28;20047;-67
2021/12/12 05:02:11;;;;;;;0.00;0.00;;;11.60;99.90;;;;;;5070148;28;20045;-68
2021/12/12 05:05:04;;;;;;;0.00;0.00;;;11.60;99.90;;;;;;5070725;28;20051;-68
2021/12/12 05:07:36;;;;;;;0.00;0.00;;;11.60;99.90;;;;;;5071728;28;20044;-68
2021/12/12 05:10:10;;;;;;;0.00;0.00;;;11.60;99.90;;;;;;5070771;28;20071;-68
2021/12/12 05:12:53;;;;;;;0.00;0.00;;;11.60;99.90;;;;;;5069895;28;20071;-66
2021/12/12 05:15:28;;;;;;;0.00;0.00;;;11.70;99.90;;;;;;5070975;28;20048;-68
2021/12/12 05:18:01;;;;;;;0.00;0.00;;;11.70;99.90;;;;;;5071681;28;20512;-68
2021/12/12 05:20:33;;;;;;;0.25;0.10;;;11.70;99.90;;;;;;5071488;28;20045;-68
2021/12/12 05:23:05;;;;;;;0.00;0.00;;;11.70;99.90;;;;;;5070367;28;20064;-68
2021/12/12 05:25:43;;;;;;;0.10;0.00;;;11.70;99.90;;;;;;5070804;28;20048;-68
2021/12/12 05:28:12;;;;;;;0.22;0.00;;;11.70;99.90;;;;;;5067996;28;20040;-67
2021/12/12 05:30:40;;;;;;;0.00;0.00;;;11.70;99.90;;;;;;5071674;28;20052;-68
2021/12/12 05:33:10;;;;;;;0.40;0.00;;;11.80;99.90;;;;;;5071389;28;20636;-68
2021/12/12 05:35:39;;;;;;;0.35;0.10;;;11.70;99.90;;;;;;5071441;28;20048;-68
2021/12/12 05:38:11;;;;;;;0.95;0.15;;;11.70;99.90;;;;;;5070898;28;20059;-67
2021/12/12 05:40:43;;;;;;;0.10;0.10;;;11.70;99.90;;;;;;5071340;28;20056;-68
2021/12/12 05:43:14;;;;;;;0.10;0.10;;;11.70;99.90;;;;;;5071334;28;20055;-69
2021/12/12 05:45:42;;;;;;;0.43;0.20;;;11.70;99.90;;;;;;5071311;28;20048;-69
2021/12/12 05:48:10;;;;;;;0.35;0.10;;;11.70;99.90;;;;;;5062888;28;20518;-68
2021/12/12 05:50:40;;;;;;;0.40;0.20;;;11.70;99.90;;;;;;5067878;28;20040;-68
2021/12/12 05:53:08;;;;;;;2.00;0.13;;;11.70;99.90;;;;;;5067470;28;20170;-68
2021/12/12 05:55:38;;;;;;;1.23;0.10;;;11.70;99.90;;;;;;5067191;28;20059;-66
2021/12/12 05:58:11;;;;;;;0.20;0.20;;;11.70;99.90;;;;;;5067656;28;20075;-66
2021/12/12 06:00:44;;;;;;;0.55;0.20;;;11.70;99.90;;;;;;5068020;28;20060;-68
2021/12/12 06:03:17;;;;;;;1.20;0.30;;;11.70;99.90;;;;;;5052032;28;20485;-70
2021/12/12 06:05:45;;;;;;;1.73;1.00;;;11.70;99.90;;;;;;5063490;28;20135;-68
2021/12/12 06:08:14;;;;;;;1.50;1.00;;;11.70;99.90;;;;;;5096146;28;20075;-66
2021/12/12 06:10:43;;;;;;;1.58;1.48;;;11.60;99.90;;;;;;5064095;28;20048;-72
2021/12/12 06:13:14;;;;;;;1.40;1.30;;;11.60;99.90;;;;;;5066427;28;20317;-72
2021/12/12 06:15:45;;;;;;;2.10;1.48;;;11.50;99.90;;;;;;5067068;28;20049;-70
2021/12/12 06:18:13;;;;;;;2.35;1.13;;;11.50;99.90;;;;;;5062739;28;20049;-70
2021/12/12 06:20:44;;;;;;;1.92;1.40;;;11.50;99.90;;;;;;5063715;28;20506;-73
2021/12/12 06:23:15;;;;;;;1.35;1.20;;;11.40;99.90;;;;;;5062817;28;20036;-68
2021/12/12 06:25:44;;;;;;;2.08;1.00;;;11.40;99.90;;;;;;5067320;28;20049;-65
2021/12/12 06:28:16;;;;;;;1.05;0.77;;;11.40;99.90;;;;;;5070819;28;20048;-75
2021/12/12 06:30:44;;;;;;;2.50;0.90;;;11.30;99.90;;;;;;5070355;28;20067;-71
2021/12/12 06:33:13;;;;;;;3.67;0.93;;;11.30;99.90;;;;;;5071034;28;20506;-72
2021/12/12 06:35:41;;;;;;;0.80;0.80;;;11.30;99.90;;;;;;5069898;28;20059;-71
2021/12/12 06:38:11;;;;;;;0.95;0.80;;;11.30;99.90;;;;;;5071343;28;20041;-63
2021/12/12 06:40:42;;;;;;;2.92;0.80;;;11.30;99.90;;;;;;5066902;28;20052;-64
2021/12/12 06:43:13;;;;;;;1.48;0.90;;;11.20;99.90;;;;;;5067559;28;20047;-63
2021/12/12 06:45:41;;;;;;;1.42;0.73;;;11.30;99.90;;;;;;5067406;28;20617;-66
2021/12/12 06:48:11;;;;;;;2.47;0.73;;;11.20;99.90;;;;;;5062820;28;20464;-63
2021/12/12 06:50:40;;;;;;;;;;;11.20;99.90;;;;;;5068861;28;20483;-65
2021/12/12 06:53:09;;;;;;;2.25;0.70;;;11.20;99.90;;;;;;5066677;28;19921;-66
2021/12/12 06:55:44;;;;;;;1.58;0.80;;;11.20;99.90;;;;;;5067065;28;20552;-68
2021/12/12 06:58:17;;;;;;;1.13;0.82;;;11.20;99.90;;;;;;5060204;28;20060;-63
2021/12/12 07:00:49;;;;;;;0.50;0.50;;;11.30;99.90;;;;;;5069539;28;20055;-64
2021/12/12 07:03:24;;;;;;;1.17;0.82;;;11.30;99.90;;;;;;5040423;28;20428;-64
2021/12/12 07:05:53;;;;;;;1.23;0.90;;;11.30;99.90;;;;;;5053292;28;20407;-63
2021/12/12 07:08:22;;;;;;;1.83;0.80;;;11.30;99.90;;;;;;5070291;28;20052;-65
2021/12/12 07:10:50;;;;;;;1.10;0.88;;;11.30;99.90;;;;;;5070289;28;20048;-66
2021/12/12 07:13:18;;;;;;;1.60;1.05;;;11.30;99.90;;;;;;5102748;28;20505;-64
2021/12/12 07:15:51;;;;;;;2.78;1.63;;;11.30;99.90;;;;;;5069566;28;20057;-64
2021/12/12 07:18:23;;;;;;;4.03;1.20;;;11.30;99.90;;;;;;5059661;28;20086;-67
2021/12/12 07:20:53;;;;;;;1.35;0.98;;;11.30;99.90;;;;;;5047199;28;20057;-64
2021/12/12 07:23:21;;;;;;;4.15;1.25;;;11.30;99.90;;;;;;5063852;28;20055;-69
2021/12/12 07:25:49;;;;;;;2.17;0.90;;;11.30;99.90;;;;;;5069985;28;20063;-64
2021/12/12 07:28:17;;;;;;;1.13;1.02;;;11.30;99.90;;;;;;5070084;28;20396;-66
2021/12/12 07:30:45;;;;;;;1.67;0.75;;;11.20;99.90;;;;;;5070052;28;20059;-64
2021/12/12 07:33:14;;;;;;;0.68;0.60;;;11.20;99.90;;;;;;5063419;28;20041;-67
2021/12/12 07:35:43;;;;;;;2.97;0.60;;;11.30;99.90;;;;;;5030736;28;20064;-64
2021/12/12 07:38:14;;;;;;;0.55;0.52;;;11.20;99.90;;;;;;5058961;28;20507;-63
2021/12/12 07:40:45;;;;;;;0.90;0.40;;;11.30;99.90;;;;;;5069980;28;20396;-63
2021/12/12 07:43:13;;;;;;;1.30;0.40;;;11.30;99.90;;;;;;5068291;28;20036;-64
2021/12/12 07:45:42;;;;;;;0.82;0.40;;;11.30;99.90;;;;;;5070160;28;20075;-63
2021/12/12 07:48:12;;;;;;;2.22;0.50;;;11.40;99.90;;;;;;5066233;28;20041;-63
2021/12/12 07:50:44;;;;;;;1.73;0.40;;;11.40;99.90;;;;;;5059640;28;20528;-63
2021/12/12 07:53:12;;;;;;;0.70;0.57;;;11.40;99.90;;;;;;5066359;28;20044;-63
2021/12/12 07:55:40;;;;;;;2.05;0.65;;;11.40;99.90;;;;;;5066286;28;20484;-66
2021/12/12 07:58:12;;;;;;;7.07;0.80;;;11.40;99.90;;;;;;5069340;28;20485;-63
2021/12/12 08:00:45;;;;;;;1.42;0.70;;;11.40;99.90;;;;;;5069560;28;20052;-66
2021/12/12 08:03:16;;;;;;;0.80;0.65;;;11.40;99.90;;;;;;5062038;28;20036;-63
2021/12/12 08:05:44;;;;;;;2.58;1.00;;;11.40;99.90;;;;;;5046651;28;20045;-62
2021/12/12 08:08:14;;;;;;;0.88;0.80;;;11.50;99.90;;;;;;5060039;28;20048;-67
2021/12/12 08:10:43;;;;;;;;;;;11.40;99.90;;;;;;5069948;28;20484;-64
2021/12/12 08:13:12;;;;;;;2.67;1.02;;;11.40;99.90;;;;;;5070071;28;20320;-63
2021/12/12 08:15:41;;;;;;;3.95;1.10;;;11.40;99.90;;;;;;5070268;28;20048;-79
2021/12/12 08:18:11;;;;;;;2.00;1.02;;;11.40;99.90;;;;;;5070363;28;20492;-77
2021/12/12 08:20:40;;;;;;;4.60;1.20;;;11.40;99.90;;;;;;5071213;28;20048;-75
2021/12/12 08:23:08;;;;;;;3.03;1.10;;;11.40;99.90;;;;;;5071317;28;20051;-79
2021/12/12 08:25:37;;;;;;;6.15;1.30;;;11.40;99.90;;;;;;5071161;28;20040;-77
2021/12/12 08:28:05;;;;;;;1.13;1.02;;;11.40;99.90;;;;;;5069625;28;20048;-79
2021/12/12 08:30:34;;;;;;;1.23;1.08;;;11.40;99.90;;;;;;5069902;28;20527;-77
2021/12/12 08:33:05;;;;;;;4.65;1.33;;;11.40;99.90;;;;;;5067240;28;20044;-76
2021/12/12 08:35:34;;;;;;;1.55;1.05;;;11.40;99.90;;;;;;5065192;28;20052;-63
2021/12/12 08:38:05;;;;;;;1.30;1.10;;;11.50;99.90;;;;;;5069581;28;20051;-81
2021/12/12 08:40:38;;;;;;;1.95;1.52;;;11.50;99.90;;;;;;5071254;28;20040;-78
2021/12/12 08:43:09;;;;;;;2.20;1.45;;;11.50;99.90;;;;;;5069697;28;20048;-82
2021/12/12 08:45:44;;;;;;;1.92;1.73;;;11.50;99.90;;;;;;5071644;28;20428;-74
2021/12/12 08:48:14;;;;;;;2.80;2.10;;;11.50;99.90;;;;;;5068301;28;20389;-67
2021/12/12 08:50:44;;;;;;;3.33;2.20;;;11.50;99.90;;;;;;5066681;28;20059;-66
2021/12/12 08:53:13;;;;;;;3.38;2.33;;;11.50;99.90;;;;;;5067670;28;20053;-65
2021/12/12 08:55:43;;;;;;;1.85;1.50;;;11.40;99.90;;;;;;5068070;28;20040;-64
2021/12/12 08:58:15;;;;;;;2.72;1.95;;;11.50;99.90;;;;;;5068044;28;20049;-64
2021/12/12 09:01:09;;;;;;;4.28;1.45;;;11.40;99.90;;;;;;5068950;28;20044;-71
2021/12/12 09:03:39;;;;;;;3.05;1.40;;;11.40;99.90;;;;;;5067697;28;20048;-72
2021/12/12 09:06:10;;;;;;;1.25;1.15;;;11.40;99.90;;;;;;5067174;28;20067;-75
2021/12/12 09:08:52;;;;;;;3.47;1.45;;;11.40;99.90;;;;;;5065831;28;20041;-70
2021/12/12 09:11:39;;;;;;;1.73;1.30;;;11.50;99.90;;;;;;5049494;28;20048;-72
2021/12/12 09:14:13;;;;;;;2.33;1.30;;;11.50;99.90;;;;;;5067519;28;20400;-65
2021/12/12 09:16:47;;;;;;;4.07;1.40;;;11.50;99.90;;;;;;5068508;28;20499;-66
2021/12/12 09:19:27;;;;;;;3.53;1.58;;;11.50;99.90;;;;;;5066314;28;20048;-67
2021/12/12 09:22:01;;;;;;;5.07;1.73;;;11.50;99.90;;;;;;5068131;28;20049;-68
2021/12/12 09:25:00;;;;;;;2.85;1.55;;;11.50;99.90;;;;;;5048211;28;20134;-66
2021/12/12 09:27:36;;;;;;;2.10;1.60;;;11.50;99.90;;;;;;5055420;28;20431;-67
2021/12/12 09:30:07;;;;;;;3.33;1.85;;;11.50;99.90;;;;;;5068046;28;20373;-65
2021/12/12 09:32:43;;;;;;;3.42;1.50;;;11.50;99.90;;;;;;5066926;28;20431;-64
2021/12/12 09:35:34;;;;;;;4.82;1.60;;;11.50;99.90;;;;;;5066628;28;20294;-64
2021/12/12 09:38:12;;;;;;;3.78;1.80;;;11.50;99.90;;;;;;5067973;28;20052;-64
2021/12/12 09:41:04;;;;;;;3.28;1.50;;;11.50;99.90;;;;;;5067623;28;20048;-67
2021/12/12 09:43:44;;;;;;;2.63;1.70;;;11.50;99.90;;;;;;5065759;28;20056;-65
2021/12/12 09:46:31;;;;;;;5.05;1.50;;;11.50;99.90;;;;;;5066525;28;20079;-64
2021/12/12 09:52:09;;;;;;;4.68;1.30;;;11.60;99.90;;;;;;5063584;28;20347;-63
2021/12/12 09:54:57;;;;;;;1.83;1.08;;;11.60;99.90;;;;;;5067644;28;20214;-64
2021/12/12 09:57:29;;;;;;;1.98;0.90;;;11.60;99.90;;;;;;5063717;28;20041;-68
2021/12/12 10:00:03;;;;;;;1.20;0.98;;;11.70;99.90;;;;;;5052499;28;20049;-63
2021/12/12 10:02:44;;;;;;;5.00;1.17;;;11.70;99.90;;;;;;5070923;28;20067;-66
2021/12/12 10:05:28;;;;;;;1.23;0.77;;;11.60;99.90;;;;;;5066875;28;20064;-65
2021/12/12 10:08:32;;;;;;;1.08;0.93;;;11.60;99.90;;;;;;5070462;28;20511;-65
2021/12/12 10:11:17;;;;;;;1.25;0.80;;;11.60;99.90;;;;;;5068556;28;20048;-63
2021/12/12 10:14:01;;;;;;;1.17;0.60;;;11.60;99.90;;;;;;5054405;28;20056;-64
2021/12/12 10:16:37;;;;;;;1.00;0.90;;;11.60;99.90;;;;;;5068381;28;20270;-65
2021/12/12 10:19:27;;;;;;;1.13;0.88;;;11.60;99.90;;;;;;5067005;28;20507;-65
2021/12/12 10:22:18;;;;;;;3.40;0.80;;;11.60;99.90;;;;;;5071562;28;20059;-63
2021/12/12 10:25:04;;;;;;;1.17;0.52;;;11.60;99.90;;;;;;5071209;28;20044;-64
2021/12/12 10:27:52;;;;;;;1.60;1.00;;;11.50;99.90;;;;;;5071541;28;20075;-64
2021/12/12 10:30:26;;;;;;;0.50;0.50;;;11.50;99.90;;;;;;5071298;28;20056;-64
2021/12/12 10:33:18;;;;;;;3.65;0.90;;;11.50;99.90;;;;;;5065004;28;20072;-64
2021/12/12 10:35:53;;;;;;;1.55;0.95;;;11.50;99.90;;;;;;5064488;28;20045;-64
2021/12/12 10:38:37;;;;;;;2.45;0.93;;;11.60;99.90;;;;;;5069652;28;20499;-63
2021/12/12 10:41:17;;;;;;;0.73;0.52;;;11.60;99.90;;;;;;5071136;28;20041;-63
2021/12/12 10:43:59;;;;;;;1.23;0.60;;;11.70;99.90;;;;;;5070689;28;20051;-63
2021/12/12 10:46:41;;;;;;;0.32;0.30;;;11.70;99.90;;;;;;5071066;28;20072;-64
2021/12/12 10:49:56;;;;;;;0.65;0.57;;;11.80;99.90;;;;;;5054494;28;20045;-64
2021/12/12 10:52:49;;;;;;;0.93;0.47;;;11.90;99.90;;;;;;5054076;28;20052;-64
2021/12/12 10:55:33;;;;;;;1.05;0.50;;;11.90;99.90;;;;;;5070605;28;20048;-68
2021/12/12 10:58:20;;;;;;;0.70;0.60;;;12.00;99.90;;;;;;5070652;28;20052;-66
2021/12/12 11:00:53;;;;;;;1.50;0.52;;;12.00;99.90;;;;;;5069358;28;20052;-64
2021/12/12 11:03:23;;;;;;;1.20;0.63;;;12.10;99.90;;;;;;5070328;28;20048;-64
2021/12/12 11:06:02;;;;;;;;;;;12.10;99.90;;;;;;5069693;28;20057;-64
2021/12/12 11:08:42;;;;;;;0.97;0.50;;;12.20;99.90;;;;;;5068680;28;19920;-65
2021/12/12 11:11:14;;;;;;;1.48;0.70;;;12.20;99.90;;;;;;5070674;28;20052;-65
2021/12/12 11:13:50;;;;;;;1.85;0.50;;;12.30;99.90;;;;;;5070466;28;20511;-64
2021/12/12 11:16:50;;;;;;;2.53;0.60;;;12.30;99.90;;;;;;5068566;28;20052;-63
2021/12/12 11:20:06;;;;;;;2.13;0.60;;;12.30;99.90;;;;;;5047342;28;20049;-64
2021/12/12 11:22:44;;;;;;;1.77;0.65;;;12.40;99.90;;;;;;5054332;28;20059;-64
2021/12/12 11:25:40;;;;;;;3.60;0.50;;;12.40;99.90;;;;;;5070511;28;20048;-64
2021/12/12 11:28:43;;;;;;;2.35;0.50;;;12.30;99.90;;;;;;5053023;28;20257;-77
2021/12/12 11:31:19;;;;;;;3.03;0.50;;;12.40;99.90;;;;;;5064159;28;20068;-77
2021/12/12 11:33:52;;;;;;;1.38;0.38;;;12.40;99.90;;;;;;5065123;28;20040;-73
2021/12/12 11:36:30;;;;;;;1.25;0.30;;;12.40;99.90;;;;;;5065521;28;20044;-75
2021/12/12 11:39:03;;;;;;;2.28;0.50;;;12.50;99.90;;;;;;5054699;28;20481;-72
2021/12/12 11:41:48;;;;;;;2.00;0.30;;;12.40;99.90;;;;;;5047576;28;20053;-73
2021/12/12 11:44:38;;;;;;;1.75;0.32;;;12.50;99.90;;;;;;5058799;28;20480;-71
2021/12/12 11:47:08;;;;;;;2.67;0.60;;;12.50;99.90;;;;;;5060363;28;20055;-70
2021/12/12 11:50:00;;;;;;;17.98;5.25;;;12.50;99.90;;;;;;5045583;28;20053;-64
2021/12/12 11:52:36;;;;;;;1.63;0.80;;;12.50;99.90;;;;;;5054174;28;20063;-65
2021/12/12 11:55:27;;;;;;;1.00;0.30;;;12.50;99.90;;;;;;5055779;28;20040;-65
2021/12/12 11:58:10;;;;;;;1.30;0.30;;;12.60;99.90;;;;;;5054139;28;20067;-66
2021/12/12 12:00:42;;;;;;;0.15;0.13;;;12.50;99.90;;;;;;5062618;28;20515;-66
2021/12/12 12:03:24;;;;;;;0.75;0.10;;;12.60;99.90;;;;;;5058404;28;20048;-66
2021/12/12 12:06:16;;;;;;;6.05;0.55;;;12.60;99.90;;;;;;5059680;28;20048;-65
2021/12/12 12:09:18;;;;;;;0.90;0.25;;;12.70;99.90;;;;;;5064451;28;20049;-67
2021/12/12 12:12:08;;;;;;;4.70;0.30;;;12.70;99.90;;;;;;5064414;28;20504;-66
2021/12/12 12:14:54;;;;;;;;;;;12.80;99.90;;;;;;5066234;28;20057;-66
2021/12/12 12:17:36;;;;;;;0.65;0.10;;;12.80;99.90;;;;;;5064990;28;19924;-66
2021/12/12 12:20:19;;;;;;;0.30;0.10;;;12.90;99.90;;;;;;5063962;28;20334;-66
2021/12/12 12:22:54;;;;;;;2.40;0.10;;;12.90;99.90;;;;;;5063181;28;20071;-67
2021/12/12 12:25:40;;;;;;;1.95;0.20;;;13.00;99.90;;;;;;5065322;28;20067;-67
2021/12/12 12:28:11;;;;;;;1.80;0.10;;;13.10;99.90;;;;;;5064113;28;20048;-67
2021/12/12 12:30:48;;;;;;;2.03;0.15;;;13.10;99.90;;;;;;5060637;28;20053;-67
2021/12/12 12:33:53;;;;;;;1.98;0.30;;;13.10;99.90;;;;;;5043453;28;20048;-67
2021/12/12 12:36:27;;;;;;;0.80;0.17;;;13.20;99.90;;;;;;5064792;28;20048;-68
2021/12/12 12:39:31;;;;;;;3.55;0.30;;;13.20;99.90;;;;;;5062369;28;20049;-69
2021/12/12 12:42:39;;;;;;;4.82;0.50;;;13.10;99.90;;;;;;5065474;28;20514;-67
2021/12/12 12:45:40;;;;;;;1.20;0.10;;;13.10;99.90;;;;;;5039749;28;20049;-68
2021/12/12 12:48:48;;;;;;;2.50;0.15;;;13.10;99.90;;;;;;5052855;28;20484;-69
2021/12/12 12:51:35;;;;;;;2.65;0.20;;;13.10;99.90;;;;;;5064300;28;20488;-69
2021/12/12 12:54:09;;;;;;;1.33;0.10;;;13.10;99.90;;;;;;5065432;28;20499;-67
2021/12/12 12:57:09;;;;;;;2.70;0.40;;;13.10;99.90;;;;;;5064179;28;20052;-67
2021/12/12 12:59:37;;;;;;;;;;;13.00;99.90;;;;;;5045484;28;20052;-67
2021/12/12 13:02:22;;;;;;;3.05;0.10;;;13.00;99.90;;;;;;5043970;28;19925;-67
2021/12/12 13:05:26;;;;;;;3.85;0.17;;;13.00;99.90;;;;;;5045716;28;20044;-67
2021/12/12 13:08:28;;;;;;;1.55;0.10;;;13.00;99.90;;;;;;5048812;28;20389;-67
2021/12/12 13:11:01;;;;;;;0.65;0.10;;;13.00;99.90;;;;;;5065487;28;20060;-65
2021/12/12 13:13:36;;;;;;;1.58;0.17;;;13.00;99.90;;;;;;5065156;28;20495;-66
2021/12/12 13:16:11;;;;;;;0.10;0.10;;;13.10;99.90;;;;;;5050107;28;20056;-66
2021/12/12 13:19:00;;;;;;;1.95;0.20;;;13.20;99.90;;;;;;5055528;28;20485;-66
2021/12/12 13:21:51;;;;;;;0.30;0.13;;;13.20;99.90;;;;;;5065507;28;20052;-65
2021/12/12 13:24:57;;;;;;;1.15;0.03;;;13.30;99.90;;;;;;5063501;28;20041;-68
2021/12/12 13:27:51;;;;;;;0.25;0.10;;;13.30;99.90;;;;;;5064977;28;20044;-67
2021/12/12 13:30:28;;;;;;;1.77;0.17;;;13.30;99.90;;;;;;5058530;28;20041;-71
2021/12/12 13:33:14;;;;;;;1.70;0.28;;;13.30;99.90;;;;;;5051515;28;20067;-69
2021/12/12 13:36:06;;;;;;;1.08;0.10;;;13.40;99.90;;;;;;5065078;28;20047;-70
2021/12/12 13:38:49;;;;;;;0.65;0.10;;;13.50;99.90;;;;;;5064617;28;20056;-69
2021/12/12 13:41:36;;;;;;;1.05;0.20;;;13.60;99.90;;;;;;5064806;28;20044;-70
2021/12/12 13:44:25;;;;;;;1.65;0.08;;;13.60;99.90;;;;;;5064013;28;20454;-72
2021/12/12 13:47:05;;;;;;;0.10;0.00;;;13.60;99.90;;;;;;5027564;28;20049;-72
2021/12/12 13:50:05;;;;;;;0.20;0.10;;;13.50;99.90;;;;;;5063397;28;20318;-68
2021/12/12 13:52:45;;;;;;;;;;;13.40;99.90;;;;;;5052257;28;20443;-68